Time;durP1;ratioP1;P1;durP2;ratioP2;P2;SDS_P1;SDS_P2;PMS_P1;PMS_P2;Temp;Humidity;BMP_temperature;BMP_pressure;BME280_temperature;BME280_humidity;BME280_pressure;Samples;Min_cycle;Max_cycle;Signal;HPM_P1;HPM_P2
2021/06/05 00:00:50;;;;;;;;;;;11.50;99.90;;;;;;5093071;28;20211;-68
2021/06/05 00:03:17;;;;;;;;;;;11.60;99.90;;;;;;5093321;28;19916;-69
2021/06/05 00:05:45;;;;;;;;;;;11.60;99.90;;;;;;5093271;28;19909;-71
2021/06/05 00:08:16;;;;;;;;;;;11.70;99.90;;;;;;5093387;28;19908;-69
2021/06/05 00:10:45;;;;;;;;;;;11.80;99.90;;;;;;5125832;28;20377;-68
2021/06/05 00:13:14;;;;;;;;;;;11.80;99.90;;;;;;5093314;28;20285;-67
2021/06/05 00:15:41;;;;;;;;;;;11.90;99.90;;;;;;5093256;28;19915;-69
2021/06/05 00:18:08;;;;;;;;;;;11.90;99.90;;;;;;5093175;28;20387;-68
2021/06/05 00:20:35;;;;;;;;;;;11.90;99.90;;;;;;5093252;28;19915;-69
2021/06/05 00:23:04;;;;;;;;;;;12.00;99.90;;;;;;5092913;28;19909;-69
2021/06/05 00:25:30;;;;;;;;;;;12.00;99.90;;;;;;5093097;28;19915;-68
2021/06/05 00:27:57;;;;;;;;;;;12.10;99.90;;;;;;5093285;28;19973;-70
2021/06/05 00:30:25;;;;;;;;;;;12.10;99.90;;;;;;5093119;28;19934;-69
2021/06/05 00:32:51;;;;;;;;;;;12.10;99.90;;;;;;5092893;28;19908;-69
2021/06/05 00:35:18;;;;;;;;;;;12.20;99.90;;;;;;5093146;28;20000;-70
2021/06/05 00:37:45;;;;;;;;;;;12.20;99.90;;;;;;5092878;28;19909;-69
2021/06/05 00:40:13;;;;;;;;;;;12.20;99.90;;;;;;5093044;28;19915;-67
2021/06/05 00:42:39;;;;;;;;;;;12.30;99.70;;;;;;5092904;28;20261;-68
2021/06/05 00:45:07;;;;;;;;;;;12.40;99.40;;;;;;5092268;28;19966;-69
2021/06/05 00:47:34;;;;;;;;;;;12.50;99.80;;;;;;5092997;28;20311;-68
2021/06/05 00:50:01;;;;;;;;;;;12.60;98.80;;;;;;5092979;28;19915;-69
2021/06/05 00:52:29;;;;;;;;;;;12.60;98.90;;;;;;5085533;28;20387;-68
2021/06/05 00:54:56;;;;;;;;;;;12.60;99.20;;;;;;5079103;28;20278;-70
2021/06/05 00:57:24;;;;;;;;;;;12.70;98.90;;;;;;5072108;28;19913;-69
2021/06/05 00:59:51;;;;;;;;;;;12.90;98.50;;;;;;5071601;28;19970;-68
2021/06/05 01:02:17;;;;;;;;;;;13.30;97.10;;;;;;5072088;28;20268;-68
2021/06/05 01:04:44;;;;;;;;;;;13.50;97.30;;;;;;5071383;28;20458;-68
2021/06/05 01:07:11;;;;;;;;;;;14.00;96.50;;;;;;5071981;28;19913;-69
2021/06/05 01:10:00;;;;;;;;;;;14.20;96.10;;;;;;5075082;28;19913;-69
2021/06/05 01:12:30;;;;;;;;;;;14.00;95.50;;;;;;5075558;28;19909;-68
2021/06/05 01:14:59;;;;;;;;;;;13.90;96.20;;;;;;5074978;28;19909;-69
2021/06/05 01:17:31;;;;;;;;;;;14.00;96.50;;;;;;5075217;28;19908;-68
2021/06/05 01:20:01;;;;;;;;;;;14.10;96.00;;;;;;5075554;28;19951;-68
2021/06/05 01:22:30;;;;;;;;;;;14.00;96.00;;;;;;5075181;28;19966;-67
2021/06/05 01:25:11;;;;;;;;;;;13.80;96.30;;;;;;5074808;28;20007;-67
2021/06/05 01:27:49;;;;;;;;;;;13.80;95.50;;;;;;5074985;28;19908;-69
2021/06/05 01:30:20;;;;;;;;;;;13.70;95.70;;;;;;5074868;28;19962;-68
2021/06/05 01:32:47;;;;;;;;;;;13.60;95.60;;;;;;5074896;28;20008;-67
2021/06/05 01:35:14;;;;;;;;;;;13.50;96.10;;;;;;5075201;28;19908;-67
2021/06/05 01:37:42;;;;;;;;;;;13.50;95.40;;;;;;5075006;28;19909;-67
2021/06/05 01:40:10;;;;;;;;;;;13.50;95.10;;;;;;5074781;28;19916;-67
2021/06/05 01:42:38;;;;;;;;;;;13.40;95.00;;;;;;5074824;28;19908;-69
2021/06/05 01:45:07;;;;;;;;;;;13.50;95.20;;;;;;5074327;28;19921;-67
2021/06/05 01:47:35;;;;;;;;;;;13.50;94.10;;;;;;5074912;28;19915;-69
2021/06/05 01:50:04;;;;;;;;;;;13.50;94.60;;;;;;5074622;28;20003;-67
2021/06/05 01:52:33;;;;;;;;;;;13.40;94.70;;;;;;5074149;28;19908;-70
2021/06/05 01:55:00;;;;;;;;;;;13.50;93.90;;;;;;5074170;28;19916;-67
2021/06/05 01:57:28;;;;;;;;;;;13.50;93.60;;;;;;5074621;28;19908;-69
2021/06/05 01:59:55;;;;;;;;;;;13.50;93.30;;;;;;5074580;28;19908;-68
2021/06/05 02:02:22;;;;;;;;;;;13.60;92.90;;;;;;5074335;28;19909;-69
2021/06/05 02:04:49;;;;;;;;;;;13.60;92.70;;;;;;5074233;28;19939;-69
2021/06/05 02:07:15;;;;;;;;;;;13.60;92.80;;;;;;5074144;28;20003;-68
2021/06/05 02:09:42;;;;;;;;;;;13.50;93.50;;;;;;5074360;28;20479;-69
2021/06/05 02:12:29;;;;;;;;;;;13.50;92.90;;;;;;5074384;28;19947;-68
2021/06/05 02:15:15;;;;;;;;;;;13.50;92.80;;;;;;5073569;28;20390;-68
2021/06/05 02:17:42;;;;;;;;;;;13.70;91.50;;;;;;5074500;28;19969;-68
2021/06/05 02:20:14;;;;;;;;;;;13.70;91.60;;;;;;5073885;28;19909;-69
2021/06/05 02:22:42;;;;;;;;;;;13.70;91.70;;;;;;5074134;28;19909;-68
2021/06/05 02:25:10;;;;;;;;;;;13.80;91.20;;;;;;5073742;28;19993;-68
2021/06/05 02:27:38;;;;;;;;;;;13.80;90.90;;;;;;5073989;28;19979;-68
2021/06/05 02:30:06;;;;;;;;;;;13.80;90.20;;;;;;5106291;28;20003;-70
2021/06/05 02:32:33;;;;;;;;;;;13.80;89.70;;;;;;5106451;27;20287;-69
2021/06/05 02:35:00;;;;;;;;;;;13.90;90.30;;;;;;5073452;28;19908;-69
2021/06/05 02:37:30;;;;;;;;;;;13.90;89.70;;;;;;5073750;28;19934;-68
2021/06/05 02:39:58;;;;;;;;;;;13.90;89.10;;;;;;5073510;28;19962;-68
2021/06/05 02:42:26;;;;;;;;;;;13.90;90.00;;;;;;5073464;28;19909;-67
2021/06/05 02:44:57;;;;;;;;;;;14.00;88.10;;;;;;5073004;28;19920;-69
2021/06/05 02:47:25;;;;;;;;;;;14.10;88.70;;;;;;5073523;28;19944;-68
2021/06/05 02:49:52;;;;;;;;;;;14.00;85.60;;;;;;5073610;28;19944;-67
2021/06/05 02:52:34;;;;;;;;;;;14.00;84.90;;;;;;5073693;28;19908;-67
2021/06/05 02:55:07;;;;;;;;;;;14.00;86.00;;;;;;5073794;28;20025;-67
2021/06/05 02:57:35;;;;;;;;;;;14.00;85.00;;;;;;5073368;28;19908;-68
2021/06/05 03:00:04;;;;;;;;;;;13.90;84.90;;;;;;5073282;28;19915;-67
2021/06/05 03:02:31;;;;;;;;;;;13.90;86.50;;;;;;5073155;28;20001;-69
2021/06/05 03:04:57;;;;;;;;;;;13.90;87.10;;;;;;5073028;28;19916;-70
2021/06/05 03:07:24;;;;;;;;;;;13.90;86.00;;;;;;5073142;28;19908;-68
2021/06/05 03:09:51;;;;;;;;;;;14.00;87.70;;;;;;5073196;28;19950;-69
2021/06/05 03:12:17;;;;;;;;;;;14.00;89.40;;;;;;5073196;28;19961;-70
2021/06/05 03:14:44;;;;;;;;;;;14.10;85.80;;;;;;5072755;28;19909;-69
2021/06/05 03:17:11;;;;;;;;;;;14.10;86.80;;;;;;5073118;28;19915;-70
2021/06/05 03:19:38;;;;;;;;;;;14.10;87.70;;;;;;5073106;28;19912;-68
2021/06/05 03:22:05;;;;;;;;;;;14.10;88.10;;;;;;5068807;28;19966;-68
2021/06/05 03:24:32;;;;;;;;;;;14.10;86.50;;;;;;5091613;28;19916;-70
2021/06/05 03:27:00;;;;;;;;;;;14.20;85.50;;;;;;5092171;28;19908;-68
2021/06/05 03:29:28;;;;;;;;;;;14.10;83.20;;;;;;5092443;28;19908;-70
2021/06/05 03:31:55;;;;;;;;;;;14.10;82.90;;;;;;5091926;28;19908;-68
2021/06/05 03:34:22;;;;;;;;;;;14.10;84.70;;;;;;5093045;28;19915;-68
2021/06/05 03:36:49;;;;;;;;;;;14.20;85.70;;;;;;5098433;28;20366;-70
2021/06/05 03:39:15;;;;;;;;;;;14.10;84.20;;;;;;5114162;28;19908;-70
2021/06/05 03:41:44;;;;;;;;;;;14.10;85.50;;;;;;5113960;28;20304;-70
2021/06/05 03:44:11;;;;;;;;;;;14.10;84.80;;;;;;5113429;28;19923;-68
2021/06/05 03:46:38;;;;;;;;;;;14.10;84.50;;;;;;5113863;28;19908;-69
2021/06/05 03:49:05;;;;;;;;;;;14.20;85.60;;;;;;5113541;28;19919;-69
2021/06/05 03:51:31;;;;;;;;;;;14.30;86.30;;;;;;5113816;28;19960;-69
2021/06/05 03:53:58;;;;;;;;;;;14.20;87.70;;;;;;5113734;28;19908;-69
2021/06/05 03:56:25;;;;;;;;;;;14.20;87.70;;;;;;5113844;28;19962;-69
2021/06/05 03:58:52;;;;;;;;;;;14.30;85.80;;;;;;5113303;28;20053;-70
2021/06/05 04:01:21;;;;;;;;;;;14.40;86.80;;;;;;5117247;28;19908;-70
2021/06/05 04:03:48;;;;;;;;;;;14.30;85.80;;;;;;5113714;28;19930;-69
2021/06/05 04:06:15;;;;;;;;;;;14.30;85.70;;;;;;5113504;28;19908;-69
2021/06/05 04:08:42;;;;;;;;;;;14.30;86.60;;;;;;5113445;28;20002;-70
2021/06/05 04:11:09;;;;;;;;;;;14.30;86.10;;;;;;5113652;28;19955;-72
2021/06/05 04:13:35;;;;;;;;;;;14.30;89.90;;;;;;5113450;28;20309;-68
2021/06/05 04:16:03;;;;;;;;;;;14.40;87.50;;;;;;5113484;28;20125;-69
2021/06/05 04:18:34;;;;;;;;;;;14.60;87.50;;;;;;5113614;28;20278;-68
2021/06/05 04:21:01;;;;;;;;;;;14.70;88.10;;;;;;5113385;28;19915;-69
2021/06/05 04:23:28;;;;;;;;;;;14.70;89.00;;;;;;5112109;28;19922;-69
2021/06/05 04:25:55;;;;;;;;;;;14.70;89.70;;;;;;5113632;28;19907;-69
2021/06/05 04:28:24;;;;;;;;;;;14.90;87.90;;;;;;5113352;28;19912;-68
2021/06/05 04:30:51;;;;;;;;;;;14.80;88.50;;;;;;5113673;28;19915;-72
2021/06/05 04:33:22;;;;;;;;;;;14.70;88.40;;;;;;5113416;28;19908;-70
2021/06/05 04:35:49;;;;;;;;;;;14.60;87.00;;;;;;5113491;28;20359;-70
2021/06/05 04:38:16;;;;;;;;;;;14.50;86.60;;;;;;5113406;28;19915;-70
2021/06/05 04:40:42;;;;;;;;;;;14.40;85.90;;;;;;5113367;28;19912;-70
2021/06/05 04:43:10;;;;;;;;;;;14.40;86.80;;;;;;5115689;28;19908;-70
2021/06/05 04:45:37;;;;;;;;;;;14.40;88.30;;;;;;5117077;28;19919;-69
2021/06/05 04:48:05;;;;;;;;;;;14.50;88.40;;;;;;5117185;28;19908;-69
2021/06/05 04:50:32;;;;;;;;;;;14.50;88.50;;;;;;5116931;28;19907;-68
2021/06/05 04:52:59;;;;;;;;;;;14.40;89.90;;;;;;5116656;28;19970;-69
2021/06/05 04:55:26;;;;;;;;;;;14.40;86.80;;;;;;5116975;28;19912;-68
2021/06/05 04:57:54;;;;;;;;;;;14.30;85.70;;;;;;5115467;28;20285;-70
2021/06/05 05:00:23;;;;;;;;;;;14.20;88.90;;;;;;5116976;28;20322;-68
2021/06/05 05:02:50;;;;;;;;;;;14.30;87.30;;;;;;5116470;28;19908;-69
2021/06/05 05:05:16;;;;;;;;;;;14.40;90.00;;;;;;5116566;28;19916;-67
2021/06/05 05:07:45;;;;;;;;;;;14.50;88.60;;;;;;5116608;28;19912;-68
2021/06/05 05:10:12;;;;;;;;;;;14.40;90.10;;;;;;5116733;28;19914;-69
2021/06/05 05:12:39;;;;;;;;;;;14.40;89.30;;;;;;5116573;28;20430;-68
2021/06/05 05:15:06;;;;;;;;;;;14.40;89.20;;;;;;5116305;28;19908;-68
2021/06/05 05:17:34;;;;;;;;;;;14.50;90.30;;;;;;5116560;28;19919;-69
2021/06/05 05:20:01;;;;;;;;;;;14.60;90.90;;;;;;5116468;28;19915;-68
2021/06/05 05:22:28;;;;;;;;;;;14.70;90.40;;;;;;5116637;28;19907;-69
2021/06/05 05:24:55;;;;;;;;;;;14.60;90.20;;;;;;5116219;28;20049;-69
2021/06/05 05:27:21;;;;;;;;;;;14.50;90.80;;;;;;5116603;28;19907;-72
2021/06/05 05:29:48;;;;;;;;;;;14.60;90.80;;;;;;5116294;28;20382;-68
2021/06/05 05:32:15;;;;;;;;;;;14.60;91.20;;;;;;5116257;28;19915;-70
2021/06/05 05:34:41;;;;;;;;;;;14.60;91.10;;;;;;5116139;28;19962;-69
2021/06/05 05:37:08;;;;;;;;;;;14.50;91.20;;;;;;5116051;28;19908;-70
2021/06/05 05:39:35;;;;;;;;;;;14.50;91.10;;;;;;5115910;28;19912;-70
2021/06/05 05:42:01;;;;;;;;;;;14.50;91.70;;;;;;5116162;28;19915;-70
2021/06/05 05:44:28;;;;;;;;;;;14.50;91.10;;;;;;5115795;28;19924;-68
2021/06/05 05:46:55;;;;;;;;;;;14.50;91.40;;;;;;5115822;28;19908;-70
2021/06/05 05:49:21;;;;;;;;;;;14.50;91.20;;;;;;5115857;28;19912;-70
2021/06/05 05:51:50;;;;;;;;;;;14.50;91.30;;;;;;5115955;28;19964;-70
2021/06/05 05:54:16;;;;;;;;;;;14.50;92.30;;;;;;5115033;28;19915;-70
2021/06/05 05:56:43;;;;;;;;;;;14.60;91.70;;;;;;5115908;28;19912;-70
2021/06/05 05:59:11;;;;;;;;;;;14.50;92.20;;;;;;5115526;28;19908;-70
2021/06/05 06:01:37;;;;;;;;;;;14.50;92.50;;;;;;5115793;28;19908;-69
2021/06/05 06:04:04;;;;;;;;;;;14.40;91.90;;;;;;5115592;28;19955;-70
2021/06/05 06:06:31;;;;;;;;;;;14.40;92.50;;;;;;5115583;28;19947;-70
2021/06/05 06:08:59;;;;;;;;;;;14.30;93.00;;;;;;5115200;28;19908;-69
2021/06/05 06:11:26;;;;;;;;;;;14.30;93.70;;;;;;5114130;28;20358;-70
2021/06/05 06:13:52;;;;;;;;;;;14.20;93.00;;;;;;5115418;28;19965;-71
2021/06/05 06:16:19;;;;;;;;;;;14.20;92.90;;;;;;5115467;28;20311;-71
2021/06/05 06:18:46;;;;;;;;;;;14.10;93.20;;;;;;5115052;28;19977;-71
2021/06/05 06:21:14;;;;;;;;;;;14.20;94.00;;;;;;5115103;28;20362;-71
2021/06/05 06:23:42;;;;;;;;;;;14.20;93.70;;;;;;5115142;28;20285;-70
2021/06/05 06:26:17;;;;;;;;;;;14.10;93.80;;;;;;5115258;28;20007;-70
2021/06/05 06:28:44;;;;;;;;;;;14.10;93.90;;;;;;5114736;28;19978;-70
2021/06/05 06:31:12;;;;;;;;;;;14.00;93.90;;;;;;5115136;28;19943;-71
2021/06/05 06:33:39;;;;;;;;;;;14.00;94.10;;;;;;5115018;28;19909;-70
2021/06/05 06:36:07;;;;;;;;;;;13.90;94.70;;;;;;5115121;28;19908;-70
2021/06/05 06:38:36;;;;;;;;;;;13.90;94.90;;;;;;5114970;28;19916;-70
2021/06/05 06:41:04;;;;;;;;;;;13.90;94.80;;;;;;5114688;28;19939;-70
2021/06/05 06:43:31;;;;;;;;;;;13.80;95.20;;;;;;5114585;28;19912;-70
2021/06/05 06:46:00;;;;;;;;;;;13.80;96.00;;;;;;5114497;28;19957;-70
2021/06/05 06:48:27;;;;;;;;;;;13.70;96.10;;;;;;5114805;28;20282;-70
2021/06/05 06:50:53;;;;;;;;;;;13.70;96.70;;;;;;5114502;28;19912;-70
2021/06/05 06:53:20;;;;;;;;;;;13.60;97.20;;;;;;5114727;28;19907;-71
2021/06/05 06:55:47;;;;;;;;;;;13.50;98.10;;;;;;5114814;28;19908;-71
2021/06/05 06:58:13;;;;;;;;;;;13.50;98.70;;;;;;5114297;28;19912;-70
2021/06/05 07:00:42;;;;;;;;;;;13.40;98.80;;;;;;5114447;28;19908;-69
2021/06/05 07:03:09;;;;;;;;;;;13.40;99.70;;;;;;5112870;28;20385;-71
2021/06/05 07:05:37;;;;;;;;;;;13.40;99.90;;;;;;5114497;28;19912;-70
2021/06/05 07:08:15;;;;;;;;;;;13.40;99.90;;;;;;5114212;28;19912;-68
2021/06/05 07:10:43;;;;;;;;;;;13.30;99.80;;;;;;5114398;28;19908;-69
2021/06/05 07:13:10;;;;;;;;;;;13.20;99.80;;;;;;5113994;28;19907;-68
2021/06/05 07:15:37;;;;;;;;;;;13.10;99.90;;;;;;5114178;28;20329;-70
2021/06/05 07:18:04;;;;;;;;;;;13.10;99.90;;;;;;5113858;28;19986;-69
2021/06/05 07:20:31;;;;;;;;;;;13.10;99.90;;;;;;5114421;28;19908;-69
2021/06/05 07:22:59;;;;;;;;;;;13.00;99.90;;;;;;5113890;28;19911;-69
2021/06/05 07:25:27;;;;;;;;;;;13.00;99.90;;;;;;5114094;28;19926;-68
2021/06/05 07:27:57;;;;;;;;;;;13.00;99.90;;;;;;5113930;28;19980;-68
2021/06/05 07:30:24;;;;;;;;;;;13.00;99.90;;;;;;5114305;28;20011;-69
2021/06/05 07:32:51;;;;;;;;;;;13.00;99.90;;;;;;5113850;28;19915;-68
2021/06/05 07:35:18;;;;;;;;;;;13.00;99.90;;;;;;5113789;28;19912;-68
2021/06/05 07:37:45;;;;;;;;;;;13.10;99.90;;;;;;5113807;28;20446;-67
2021/06/05 07:40:12;;;;;;;;;;;13.10;99.90;;;;;;5113872;28;19915;-68
2021/06/05 07:42:38;;;;;;;;;;;13.10;99.90;;;;;;5113781;28;19907;-68
2021/06/05 07:45:07;;;;;;;;;;;13.00;99.90;;;;;;5113284;28;19926;-67
2021/06/05 07:47:34;;;;;;;;;;;12.90;99.90;;;;;;5113761;28;19908;-68
2021/06/05 07:50:02;;;;;;;;;;;12.90;99.90;;;;;;5112857;28;20193;-68
2021/06/05 07:52:29;;;;;;;;;;;12.80;99.90;;;;;;5113673;28;20393;-67
2021/06/05 07:54:56;;;;;;;;;;;12.70;99.90;;;;;;5103419;28;19916;-68
2021/06/05 07:57:23;;;;;;;;;;;12.70;99.90;;;;;;5072367;28;20027;-68
2021/06/05 07:59:50;;;;;;;;;;;12.70;99.90;;;;;;5073252;28;20383;-67
2021/06/05 08:02:18;;;;;;;;;;;12.60;99.90;;;;;;5073301;28;19909;-70
2021/06/05 08:04:45;;;;;;;;;;;12.60;99.90;;;;;;5072649;28;19920;-68
2021/06/05 08:07:11;;;;;;;;;;;12.50;99.90;;;;;;5072966;28;19915;-67
2021/06/05 08:09:38;;;;;;;;;;;12.50;99.90;;;;;;5073096;28;19908;-68
2021/06/05 08:12:06;;;;;;;;;;;12.50;99.90;;;;;;5072852;28;19959;-69
2021/06/05 08:14:33;;;;;;;;;;;12.50;99.90;;;;;;5073159;28;19932;-67
2021/06/05 08:17:00;;;;;;;;;;;12.50;99.90;;;;;;5074125;28;19915;-68
2021/06/05 08:19:26;;;;;;;;;;;12.50;99.90;;;;;;5110165;28;19954;-67
2021/06/05 08:21:54;;;;;;;;;;;12.60;99.90;;;;;;5077285;28;19916;-68
2021/06/05 08:24:20;;;;;;;;;;;12.60;99.90;;;;;;5077073;28;19939;-68
2021/06/05 08:26:48;;;;;;;;;;;12.50;99.90;;;;;;5076060;28;20008;-68
2021/06/05 08:29:14;;;;;;;;;;;12.50;99.90;;;;;;5076923;28;20003;-68
2021/06/05 08:31:41;;;;;;;;;;;12.60;99.90;;;;;;5076968;28;19909;-68
2021/06/05 08:34:11;;;;;;;;;;;12.60;99.90;;;;;;5076732;28;20429;-70
2021/06/05 08:36:38;;;;;;;;;;;12.70;99.90;;;;;;5109165;28;19908;-68
2021/06/05 08:39:07;;;;;;;;;;;12.70;99.90;;;;;;5109047;28;19916;-69
2021/06/05 08:41:38;;;;;;;;;;;12.70;99.90;;;;;;5076029;28;19908;-69
2021/06/05 08:44:08;;;;;;;;;;;12.70;99.90;;;;;;5076278;28;20436;-68
2021/06/05 08:46:45;;;;;;;;;;;12.70;99.90;;;;;;5076581;28;19918;-69
2021/06/05 08:49:21;;;;;;;;;;;12.70;99.90;;;;;;5076540;28;19908;-68
2021/06/05 08:51:50;;;;;;;;;;;12.80;99.90;;;;;;5076410;28;19916;-70
2021/06/05 08:54:25;;;;;;;;;;;12.70;99.90;;;;;;5076304;28;19913;-69
2021/06/05 08:56:52;;;;;;;;;;;12.80;99.90;;;;;;5075376;28;19995;-68
2021/06/05 08:59:20;;;;;;;;;;;12.80;99.90;;;;;;5076291;28;19908;-69
2021/06/05 09:01:48;;;;;;;;;;;12.80;99.90;;;;;;5076224;28;20371;-68
2021/06/05 09:04:20;;;;;;;;;;;12.80;99.90;;;;;;5076041;28;19968;-68
2021/06/05 09:06:53;;;;;;;;;;;12.80;99.90;;;;;;5076039;28;19908;-68
2021/06/05 09:09:23;;;;;;;;;;;12.80;99.90;;;;;;5076248;28;19915;-69
2021/06/05 09:11:50;;;;;;;;;;;12.80;99.90;;;;;;5075217;28;19909;-70
2021/06/05 09:14:17;;;;;;;;;;;12.80;99.90;;;;;;5075859;28;19915;-70
2021/06/05 09:16:47;;;;;;;;;;;12.80;99.90;;;;;;5075450;28;20061;-68
2021/06/05 09:19:16;;;;;;;;;;;12.80;99.90;;;;;;5075662;28;19916;-69
2021/06/05 09:21:44;;;;;;;;;;;12.70;99.90;;;;;;5075816;28;19934;-69
2021/06/05 09:24:14;;;;;;;;;;;12.70;99.90;;;;;;5075524;28;19920;-69
2021/06/05 09:26:43;;;;;;;;;;;12.70;99.90;;;;;;5075068;28;19909;-68
2021/06/05 09:29:18;;;;;;;;;;;12.70;99.90;;;;;;5074478;28;19916;-68
2021/06/05 09:32:02;;;;;;;;;;;12.70;99.90;;;;;;5075658;28;19909;-69
2021/06/05 09:34:33;;;;;;;;;;;12.60;99.90;;;;;;5074953;28;19932;-69
2021/06/05 09:37:01;;;;;;;;;;;12.60;99.90;;;;;;5075182;28;20065;-68
2021/06/05 09:39:36;;;;;;;;;;;12.60;99.90;;;;;;5075478;28;19908;-69
2021/06/05 09:42:03;;;;;;;;;;;12.60;99.90;;;;;;5075538;28;20004;-69
2021/06/05 09:44:38;;;;;;;;;;;12.50;99.90;;;;;;5075278;28;19995;-70
2021/06/05 09:47:04;;;;;;;;;;;12.50;99.90;;;;;;5075294;28;19909;-69
2021/06/05 09:49:45;;;;;;;;;;;12.50;99.90;;;;;;5075350;28;20391;-69
2021/06/05 09:52:21;;;;;;;;;;;12.50;99.90;;;;;;5075516;28;20342;-69
2021/06/05 09:54:49;;;;;;;;;;;12.60;99.90;;;;;;5075083;28;20383;-69
2021/06/05 09:57:19;;;;;;;;;;;12.60;99.90;;;;;;5074983;28;19923;-67
2021/06/05 10:00:01;;;;;;;;;;;12.60;99.90;;;;;;5075259;28;19915;-69
2021/06/05 10:02:29;;;;;;;;;;;12.50;99.90;;;;;;5075217;28;19914;-68
2021/06/05 10:05:16;;;;;;;;;;;12.50;99.90;;;;;;5073913;28;20287;-69
2021/06/05 10:07:42;;;;;;;;;;;12.40;99.90;;;;;;5091547;28;19935;-69
2021/06/05 10:10:14;;;;;;;;;;;12.40;99.90;;;;;;5075019;28;19960;-68
2021/06/05 10:12:41;;;;;;;;;;;12.40;99.90;;;;;;5075025;28;20359;-68
2021/06/05 10:15:11;;;;;;;;;;;12.40;99.90;;;;;;5074836;28;19916;-69
2021/06/05 10:17:44;;;;;;;;;;;12.40;99.90;;;;;;5074744;28;19909;-69
2021/06/05 10:20:16;;;;;;;;;;;12.40;99.90;;;;;;5074890;28;20431;-68
2021/06/05 10:22:43;;;;;;;;;;;12.40;99.90;;;;;;5074593;28;20375;-68
2021/06/05 10:25:27;;;;;;;;;;;12.30;99.90;;;;;;5074576;28;19922;-69
2021/06/05 10:27:54;;;;;;;;;;;12.30;99.90;;;;;;5074543;28;20291;-68
2021/06/05 10:30:29;;;;;;;;;;;12.20;99.90;;;;;;5074544;28;20374;-69
2021/06/05 10:32:58;;;;;;;;;;;12.20;99.90;;;;;;5074415;28;20252;-68
2021/06/05 10:35:25;;;;;;;;;;;12.20;99.90;;;;;;5074648;28;19908;-68
2021/06/05 10:37:55;;;;;;;;;;;12.20;99.90;;;;;;5074440;28;19916;-68
2021/06/05 10:40:26;;;;;;;;;;;12.20;99.90;;;;;;5074076;28;19908;-68
2021/06/05 10:42:53;;;;;;;;;;;12.10;99.90;;;;;;5073776;28;19912;-69
2021/06/05 10:45:29;;;;;;;;;;;12.10;99.90;;;;;;5073821;28;20368;-68
2021/06/05 10:48:08;;;;;;;;;;;12.10;99.90;;;;;;5106750;28;19909;-69
2021/06/05 10:50:39;;;;;;;;;;;12.10;99.90;;;;;;5074083;28;19909;-68
2021/06/05 10:53:19;;;;;;;;;;;12.00;99.90;;;;;;5072543;28;19969;-68
2021/06/05 10:55:49;;;;;;;;;;;12.00;99.90;;;;;;5073748;28;19912;-68
2021/06/05 10:58:16;;;;;;;;;;;11.90;99.90;;;;;;5074018;28;20398;-67
2021/06/05 11:00:44;;;;;;;;;;;11.90;99.90;;;;;;5073872;28;20409;-68
2021/06/05 11:03:30;;;;;;;;;;;11.90;99.90;;;;;;5080488;28;19916;-67
2021/06/05 11:06:00;;;;;;;;;;;12.00;99.90;;;;;;5070695;28;19921;-67
2021/06/05 11:08:29;;;;;;;;;;;12.10;99.90;;;;;;5071024;28;19931;-68
2021/06/05 11:11:02;;;;;;;;;;;12.20;99.90;;;;;;5070765;28;19923;-68
2021/06/05 11:13:32;;;;;;;;;;;12.40;99.90;;;;;;5070568;28;19952;-68
2021/06/05 11:16:03;;;;;;;;;;;12.40;99.90;;;;;;5070765;28;19912;-68
2021/06/05 11:18:32;;;;;;;;;;;12.50;99.90;;;;;;5070811;28;19909;-68
2021/06/05 11:21:00;;;;;;;;;;;12.50;99.90;;;;;;5069920;28;19913;-68
2021/06/05 11:23:27;;;;;;;;;;;12.50;99.50;;;;;;5070819;28;19917;-68
2021/06/05 11:25:55;;;;;;;;;;;12.60;99.10;;;;;;5070503;28;19912;-68
2021/06/05 11:28:27;;;;;;;;;;;12.70;99.20;;;;;;5070682;28;19909;-68
2021/06/05 11:30:54;;;;;;;;;;;12.70;99.10;;;;;;5071045;28;20350;-68
2021/06/05 11:33:39;;;;;;;;;;;12.70;99.10;;;;;;5070757;28;19913;-67
2021/06/05 11:36:41;;;;;;;;;;;12.70;99.00;;;;;;5070291;28;20377;-68
2021/06/05 11:39:14;;;;;;;;;;;12.70;99.40;;;;;;5027617;28;20649;-66
2021/06/05 11:41:42;;;;;;;;;;;12.70;98.90;;;;;;5063883;28;19916;-67
2021/06/05 11:44:20;;;;;;;;;;;12.70;99.20;;;;;;5070372;28;20369;-67
2021/06/05 11:46:48;;;;;;;;;;;12.80;98.80;;;;;;5070195;28;20291;-67
2021/06/05 11:49:33;;;;;;;;;;;12.70;99.20;;;;;;5070412;28;19912;-68
2021/06/05 11:52:17;;;;;;;;;;;12.70;98.70;;;;;;5068992;28;20413;-68
2021/06/05 11:54:44;;;;;;;;;;;12.80;98.60;;;;;;5070186;28;19909;-67
2021/06/05 11:57:22;;;;;;;;;;;12.80;98.60;;;;;;5070448;28;20424;-67
2021/06/05 11:59:49;;;;;;;;;;;12.80;97.80;;;;;;5070208;28;19970;-68
2021/06/05 12:02:27;;;;;;;;;;;12.70;97.70;;;;;;5070152;28;20355;-69
2021/06/05 12:04:56;;;;;;;;;;;12.70;97.50;;;;;;5069915;28;19920;-66
2021/06/05 12:07:28;;;;;;;;;;;12.60;98.50;;;;;;5069729;28;19919;-68
2021/06/05 12:09:57;;;;;;;;;;;12.50;99.60;;;;;;5070210;28;19931;-68
2021/06/05 12:12:26;;;;;;;;;;;12.40;99.90;;;;;;5070167;28;19912;-68
2021/06/05 12:15:00;;;;;;;;;;;12.30;99.90;;;;;;5102458;28;19926;-70
2021/06/05 12:17:30;;;;;;;;;;;12.30;99.90;;;;;;5070372;28;19909;-67
2021/06/05 12:20:09;;;;;;;;;;;12.20;99.90;;;;;;5069442;28;19915;-68
2021/06/05 12:22:36;;;;;;;;;;;12.10;99.90;;;;;;5070190;28;20428;-68
2021/06/05 12:25:03;;;;;;;;;;;12.00;99.90;;;;;;5069764;28;19924;-69
2021/06/05 12:27:39;;;;;;;;;;;11.90;99.90;;;;;;5069701;28;20409;-69
2021/06/05 12:30:09;;;;;;;;;;;11.80;99.90;;;;;;5070129;28;19909;-68
2021/06/05 12:32:36;;;;;;;;;;;11.70;99.90;;;;;;5069691;28;19916;-67
2021/06/05 12:35:41;;;;;;;;;;;11.60;99.90;;;;;;5069273;28;19916;-68
2021/06/05 12:38:09;;;;;;;;;;;11.60;99.90;;;;;;5027241;28;20004;-68
2021/06/05 12:40:53;;;;;;;;;;;11.50;99.90;;;;;;5027546;28;19909;-68
2021/06/05 12:43:22;;;;;;;;;;;11.40;99.90;;;;;;5053387;28;20041;-68
2021/06/05 12:45:49;;;;;;;;;;;11.40;99.90;;;;;;5069472;28;19963;-69
2021/06/05 12:48:17;;;;;;;;;;;11.50;99.90;;;;;;5069728;28;19912;-68
2021/06/05 12:50:45;;;;;;;;;;;11.40;99.90;;;;;;5069128;28;19916;-68
2021/06/05 12:53:23;;;;;;;;;;;11.30;99.90;;;;;;5069835;28;19919;-68
2021/06/05 12:55:51;;;;;;;;;;;11.20;99.90;;;;;;5069768;28;19912;-69
2021/06/05 12:58:35;;;;;;;;;;;11.20;99.90;;;;;;5069670;28;19908;-69
2021/06/05 13:01:02;;;;;;;;;;;11.30;99.90;;;;;;5069652;28;19936;-69
2021/06/05 13:03:48;;;;;;;;;;;11.20;99.90;;;;;;5072428;28;19913;-69
2021/06/05 13:06:15;;;;;;;;;;;11.30;99.90;;;;;;5073053;28;19916;-68
2021/06/05 13:08:43;;;;;;;;;;;11.40;99.90;;;;;;5073413;28;19985;-70
2021/06/05 13:11:11;;;;;;;;;;;11.40;99.90;;;;;;5072748;28;20003;-68
2021/06/05 13:13:38;;;;;;;;;;;11.50;99.90;;;;;;5073225;28;19916;-68
2021/06/05 13:16:11;;;;;;;;;;;11.50;99.90;;;;;;5072997;28;19963;-68
2021/06/05 13:18:39;;;;;;;;;;;11.40;99.90;;;;;;5073143;28;19912;-68
2021/06/05 13:21:07;;;;;;;;;;;11.40;99.90;;;;;;5072302;28;20426;-70
2021/06/05 13:23:40;;;;;;;;;;;11.40;99.90;;;;;;5072972;28;20330;-70
2021/06/05 13:26:24;;;;;;;;;;;11.40;99.90;;;;;;5072710;28;19951;-68
2021/06/05 13:28:51;;;;;;;;;;;11.40;99.90;;;;;;5072713;28;19916;-70
2021/06/05 13:31:37;;;;;;;;;;;11.40;99.90;;;;;;5072876;28;19912;-68
2021/06/05 13:34:09;;;;;;;;;;;11.40;99.90;;;;;;5072239;28;20004;-67
2021/06/05 13:36:37;;;;;;;;;;;11.40;99.90;;;;;;5072615;28;19916;-67
2021/06/05 13:39:10;;;;;;;;;;;11.40;99.90;;;;;;5072428;28;19908;-67
2021/06/05 13:41:37;;;;;;;;;;;11.50;99.90;;;;;;5072747;28;19915;-68
2021/06/05 13:44:04;;;;;;;;;;;11.40;99.90;;;;;;5072966;28;20355;-68
2021/06/05 13:46:32;;;;;;;;;;;11.40;99.90;;;;;;5074323;28;19963;-69
2021/06/05 13:48:58;;;;;;;;;;;11.30;99.90;;;;;;5073325;28;20367;-68
2021/06/05 13:51:26;;;;;;;;;;;11.30;99.90;;;;;;5074907;28;19912;-69
2021/06/05 13:53:52;;;;;;;;;;;11.20;99.90;;;;;;5076558;28;20000;-69
2021/06/05 13:56:20;;;;;;;;;;;11.20;99.90;;;;;;5078168;28;19908;-68
2021/06/05 13:58:47;;;;;;;;;;;11.20;99.90;;;;;;5102226;28;19908;-68
2021/06/05 14:01:16;;;;;;;;;;;11.10;99.90;;;;;;5098491;28;19912;-68
2021/06/05 14:03:43;;;;;;;;;;;11.10;99.90;;;;;;5095539;28;19938;-67
2021/06/05 14:06:10;;;;;;;;;;;11.00;99.90;;;;;;5083648;28;20011;-67
2021/06/05 14:08:36;;;;;;;;;;;11.00;99.90;;;;;;5075798;28;19912;-67
2021/06/05 14:11:03;;;;;;;;;;;11.00;99.90;;;;;;5072057;28;19916;-68
2021/06/05 14:13:30;;;;;;;;;;;11.00;99.90;;;;;;5073654;28;19913;-68
2021/06/05 14:15:58;;;;;;;;;;;11.10;99.90;;;;;;5112178;28;19918;-68
2021/06/05 14:18:27;;;;;;;;;;;11.10;99.90;;;;;;5113160;28;19907;-69
2021/06/05 14:20:55;;;;;;;;;;;11.20;99.90;;;;;;5113029;28;19912;-67
2021/06/05 14:23:23;;;;;;;;;;;11.30;99.90;;;;;;5113018;28;19908;-68
2021/06/05 14:25:50;;;;;;;;;;;11.40;99.90;;;;;;5112937;28;20018;-68
2021/06/05 14:28:17;;;;;;;;;;;11.30;99.90;;;;;;5112962;28;19908;-68